Michael Howard

Chefscout - Birmingham
4 Nov 2027
Donnerstag
Verarbeitung

Persönlichkeit

Anpassungsfähigkeit (10) Ehrgeiz (6) Kontroverse (2) Loyalität (8) Druck (14) Professionalität (11) Fairness (16) Temperament (15)

Profil

Trainerstil Demokratisch
Lizenz Kontinentale Pro
Entschlossenheit 7
Menschenführung 10
Motivation 9
Disziplin 10
Arbeitszufriedenheit
36%
Ermüdung
0%
Rolle Chefscout
Gehalt 20.9K p/W
Vertrag 14.03.2030

Leistung

Verhalten Gut
Trainingseffektivität
18%
Spielerentwicklung
35%
Verletzungsprävention
45%
Taktische Umsetzung
50%

Letzte Ereignisse

Nahm an einer Scouting-Besprechung teil jetzt
Empfahl ein Transferziel jetzt
Empfahl ein Transferziel jetzt
Empfahl ein Transferziel jetzt
Spieler begutachtet 7T her
Spieler begutachtet 7T her
Spiel beobachtet 7T her
Spieler begutachtet 7T her

Aktuell beobachtet

232
Spieler Verein Status Fähigkeit Vertrauen Beobachtet Zuletzt beobachtet Letzte Stimme
Kendry Páez Chelsea Aktiv 125 / 142 40% 3 02.11.2027 -
Matvey Bardachev Zenit Aktiv 98 / 109 40% 1 02.11.2027 -
Zach Abbott Nottingham Forest Aktiv 125 / 131 40% 1 02.11.2027 -
Andrija Bulatović RC Lens Aktiv 133 / 130 40% 1 02.11.2027 -
Lukas Gausdal IK Start Aktiv 118 / 116 40% 2 31.10.2027 -
Alphadjo Cissé Como Aktiv 128 / 136 40% 1 31.10.2027 -
Ryan Kavuma-McQueen Accrington Stanley Aktiv 123 / 132 40% 3 29.10.2027 -
Kerim Alajbegović Modena Aktiv 120 / 134 40% 1 29.10.2027 -
Caleb Yirenkyi Coventry City Aktiv 136 / 149 40% 7 28.10.2027 -
Charlie Crew Leeds United Aktiv 118 / 118 40% 4 28.10.2027 -
Maximo Ingravidi Colón Aktiv 112 / 112 40% 1 28.10.2027 -
Gonçalo Oliveira Benfica Aktiv 107 / 125 40% 1 28.10.2027 -
Paulo Roberto São Paulo Aktiv 96 / 109 40% 3 27.10.2027 -
Jarvis Thornton Sheffield Wednesday Aktiv 108 / 112 40% 1 26.10.2027 -
Wellity Lucky Liverpool Aktiv 102 / 110 40% 1 26.10.2027 -
Celías Ingenthron Vélez Aktiv 120 / 121 40% 4 24.10.2027 -
Francisco Rincon Llaneros Aktiv 109 / 106 40% 2 24.10.2027 -
Kirill Glebov CSKA Moscow Aktiv 129 / 131 40% 1 24.10.2027 -
Harrison McMahon Chelsea Aktiv 115 / 116 40% 1 24.10.2027 -
Fredrik Ardraa Stromsgodset Aktiv 111 / 108 40% 3 22.10.2027 -
Caleb Kporha Crystal Palace Aktiv 109 / 110 40% 1 22.10.2027 -
João Dalla Corte Internacional Aktiv 97 / 104 40% 1 22.10.2027 -
Souza Tottenham Aktiv 122 / 132 40% 2 20.10.2027 -
Roger Fernandes Barcelona Aktiv 132 / 140 40% 2 20.10.2027 -
Sabil Hansen Randers Aktiv 109 / 117 40% 3 20.10.2027 -
João Teixeira Porto Aktiv 110 / 122 40% 2 20.10.2027 -
Martim Cunha Porto Aktiv 103 / 113 40% 2 18.10.2027 -
Bahia Criciuma Aktiv 121 / 120 40% 1 18.10.2027 -
Noah Markmann FC Midtjylland Aktiv 128 / 128 40% 1 18.10.2027 -
Jay Robinson Southampton Aktiv 133 / 131 40% 2 15.10.2027 -
Sheldon Dinesh Tranmere Rovers Aktiv 103 / 110 40% 1 15.10.2027 -
Jayden Meghoma Bristol City Aktiv 112 / 121 40% 2 13.10.2027 -
Gustavo Nunes Brentford Aktiv 133 / 136 40% 1 13.10.2027 -
Lakyle Samuel Manchester City Aktiv 112 / 109 40% 1 11.10.2027 -
Álex Marchal Real Sociedad Aktiv 118 / 118 40% 1 09.10.2027 -
Rayan Fofana RC Lens Aktiv 117 / 125 40% 1 09.10.2027 -
Yusuf Akçiçek Tottenham Aktiv 138 / 131 40% 2 08.10.2027 -
Dani Díaz Real Sociedad Aktiv 113 / 121 40% 2 08.10.2027 -
Leonel Jaime River Plate Aktiv 109 / 117 40% 1 08.10.2027 -
Leny Yoro Manchester United Aktiv 149 / 152 40% 2 07.10.2027 -
Azizbek To'lqinbekov Navbahor Aktiv 108 / 102 40% 2 05.10.2027 -
Francisco Cuzzani Ferro Carril Oeste Aktiv 111 / 109 40% 1 05.10.2027 -
Lennon Miller Udinese Aktiv 144 / 143 40% 1 05.10.2027 -
Diego León Manchester United Aktiv 116 / 126 40% 3 04.10.2027 -
Tiago Parente Benfica Aktiv 100 / 114 40% 1 30.09.2027 -
Babis Kostoulas Brighton Aktiv 132 / 147 40% 2 29.09.2027 -
Trent Kone-Doherty Molde Aktiv 108 / 102 40% 1 29.09.2027 -
Brandon Powell Wigan Athletic Aktiv 109 / 120 40% 1 28.09.2027 -
Seb Ferdinand Chesterfield Aktiv 117 / 117 40% 1 28.09.2027 -
Noah Streit CF Montreal Aktiv 112 / 126 40% 2 27.09.2027 -
Daniel Rigge Accrington Stanley Aktiv 101 / 106 40% 2 26.09.2027 -
Robinio Vaz AS Roma Aktiv 118 / 130 40% 1 26.09.2027 -
Chris Rigg Sunderland Aktiv 125 / 142 40% 3 25.09.2027 -
Felipe Obradovich Ferro Carril Oeste Aktiv 102 / 113 40% 1 22.09.2027 -
Daniel Kelly Oxford United Aktiv 107 / 126 40% 3 20.09.2027 -
Bennet Mokoena Mamelodi Sundowns Aktiv 92 / 119 40% 1 20.09.2027 -
Jhon Aponza Boca Juniors Aktiv 104 / 116 40% 1 19.09.2027 -
Don-Angelo Konadu Ajax Aktiv 105 / 119 40% 1 17.09.2027 -
Antoñito Cordero Newcastle United Aktiv 127 / 126 40% 1 17.09.2027 -
Camilo Rey Domenech Boca Juniors Aktiv 110 / 128 40% 5 16.09.2027 -
Tyrique George Everton Aktiv 122 / 134 40% 1 15.09.2027 -
Triston Rowe Aston Villa Aktiv 108 / 122 40% 1 10.09.2027 -
Bazoumana Touré Newcastle United Aktiv 135 / 152 40% 1 08.09.2027 -
Tom Atcheson Blackburn Rovers Aktiv 108 / 130 40% 4 07.09.2027 -
Mihail Polendakov Leyton Orient Aktiv 96 / 111 40% 1 07.09.2027 -
Ayden Heaven Luton Town Aktiv 150 / 156 40% 1 01.09.2027 -
Alexis Fretes Libertad Aktiv 104 / 115 40% 1 31.08.2027 -
Ronald Swansea City Bericht bereit 122 / 126 62% 1 30.08.2027 -
Eliás Montiel Werder Bremen Aktiv 128 / 140 40% 1 30.08.2027 -
Ernie Weaver AFC Wimbledon Aktiv 118 / 126 40% 3 27.08.2027 -
Billy van Duijl AZ Aktiv 130 / 130 40% 1 27.08.2027 -
Leo Shahar Newcastle United Aktiv 112 / 116 40% 1 26.08.2027 -
Ismail Al Suwaidi Al Fujairah Aktiv 120 / 132 40% 1 24.08.2027 -
Alejandro Almaraz Nueva Chicago Aktiv 100 / 115 40% 2 23.08.2027 -
Rivaldo Grobler Free State Stars Aktiv 99 / 116 40% 3 18.08.2027 -
Jamie Cumming Oxford United Bericht bereit 133 / 134 62% 1 16.08.2027 -
Adam Bakoune Ospitaletto Aktiv 94 / 109 40% 2 10.08.2027 -
Lautaro Gutiérrez Belgrano Aktiv 98 / 112 40% 1 09.08.2027 -
Rayan Bournemouth Aktiv 131 / 144 40% 1 09.08.2027 -
Eddy Kouadio Crotone Aktiv 103 / 110 40% 3 07.08.2027 -
Ryan Battrum AJ Auxerre Aktiv 92 / 106 40% 2 06.08.2027 -
Yiandro Raap Ilves Aktiv 92 / 106 40% 1 05.08.2027 -
Luka Vušković Manchester United Aktiv 155 / 156 40% 4 04.08.2027 -
Yasin Özcan Aston Villa Aktiv 110 / 121 40% 1 03.08.2027 -
David Odogu AC Milan Aktiv 133 / 130 40% 1 03.08.2027 -
Aidan Borland Aston Villa Aktiv 102 / 114 40% 1 30.07.2027 -
Jofre Torrents Ajax Aktiv 123 / 134 40% 3 29.07.2027 -
Mamadou Sarr Chelsea Aktiv 141 / 145 40% 1 29.07.2027 -
Josh Stephenson Brentford Aktiv 119 / 122 40% 3 28.07.2027 -
Vitor Reis Manchester City Aktiv 135 / 138 40% 1 28.07.2027 -
Valentin Atangana Al-Ahli Aktiv 137 / 138 40% 4 27.07.2027 -
Valentino Huertas Morón Aktiv 105 / 108 40% 1 26.07.2027 -
Simone Kosijer Triestina Aktiv 104 / 106 40% 1 22.07.2027 -
Josh Laqeretabua Charlton Athletic Aktiv 100 / 102 40% 1 21.07.2027 -
Bruno Alves Cruzeiro Aktiv 119 / 120 40% 1 19.07.2027 -
Théo Hansen Hobro Aktiv 91 / 93 40% 2 17.07.2027 -
Vasco Santos Oliveirense Aktiv 90 / 98 40% 1 16.07.2027 -
Miguel Figueiredo Cesena Aktiv 108 / 124 40% 1 16.07.2027 -
Krešimir Radoš HNK Gorica Aktiv 91 / 114 40% 1 12.07.2027 -
Mirza Ćatović VfB Stuttgart Aktiv 111 / 124 40% 1 11.07.2027 -
Ishé Samuels-Smith Chelsea Aktiv 107 / 121 40% 1 10.07.2027 -
Guram Japaridze Dinamo Batumi Aktiv 87 / 106 40% 1 10.07.2027 -
Aleksandar Stanković Como Aktiv 128 / 134 40% 1 08.07.2027 -
Sebastián Flores Ferro Carril Oeste Aktiv 104 / 105 40% 1 08.07.2027 -
Joe Knight Chesterfield Aktiv 103 / 106 40% 1 05.07.2027 -
Zaïd BafdilI Sporting CP Aktiv 98 / 102 40% 3 04.07.2027 -
Darryl Bakola Padova Aktiv 115 / 121 40% 1 04.07.2027 -
Juan Giménez Celta Aktiv 112 / 124 40% 2 03.07.2027 -
Kazunari Kita Real Sociedad Aktiv 92 / 108 40% 2 03.07.2027 -
Samuel Lucero Defensa y Justicia Aktiv 111 / 122 40% 1 02.07.2027 -
Davide Bartesaghi AC Milan Aktiv 143 / 135 40% 2 01.07.2027 -
Pablo Lúcio Bristol City Aktiv 112 / 114 40% 1 01.07.2027 -
Leonardo Mendicino Bari Aktiv 115 / 123 40% 2 30.06.2027 -
Dylan Lawlor Cardiff City Aktiv 116 / 127 40% 3 29.06.2027 -
Ezra Mayers West Ham United Aktiv 119 / 127 40% 2 27.06.2027 -
Edoardo Tartaglia Renate Aktiv 91 / 106 40% 1 26.06.2027 -
Leandro Martins Benfica Aktiv 98 / 97 40% 1 25.06.2027 -
Keagan Phiri Platinum Stars Aktiv 104 / 107 40% 1 24.06.2027 -
Lwanda Mbanjwa Maritzburg United Aktiv 96 / 89 40% 1 07.06.2027 -
Pedro de la Vega FC Dallas Bericht bereit 133 / 134 66% 1 01.06.2027 -
Franculino Crystal Palace Verhandlung 136 / 140 67% 1 01.06.2027 -
João Virgínia Wolverhampton Aktiv 127 / 132 40% 1 01.06.2027 -
Hlompho Lorch Ajax Cape Town Aktiv 100 / 107 40% 2 31.05.2027 -
Gopolang Taunyane CR Belouizdad Aktiv 108 / 88 40% 2 29.05.2027 -
Calum Kavanagh Oldham Athletic Aktiv 100 / 101 40% 2 29.05.2027 -
Eduardo Felicíssimo Sporting CP Aktiv 108 / 123 40% 1 28.05.2027 -
Evidence Makgopa Orlando Pirates Aktiv 116 / 116 40% 3 26.05.2027 -
Armando Broja Burnley Aktiv 133 / 136 40% 1 26.05.2027 -
Morgan Whittaker Middlesbrough Aktiv 134 / 134 40% 5 25.05.2027 -
Tyrese Campbell Sheffield United Aktiv 133 / 132 40% 1 25.05.2027 -
Isaac Essien WAFA Aktiv 95 / 98 40% 5 23.05.2027 -
Jaze Kabia Grimsby Town Aktiv 105 / 96 40% 1 23.05.2027 -
Finn Jeltsch VfB Stuttgart Aktiv 127 / 139 40% 1 23.05.2027 -
Olaniyi Saheed Kwara United Aktiv 102 / 105 40% 1 23.05.2027 -
Zane Albarus Cambridge United Aktiv 85 / 97 40% 1 22.05.2027 -
Tyreece Campbell Charlton Athletic Aktiv 126 / 118 40% 1 20.05.2027 -
Daniel Dennis Ikorodu City Aktiv 105 / 89 40% 1 19.05.2027 -
Aune Heggebø West Bromwich Albion Aktiv 139 / 134 40% 3 18.05.2027 -
Rocco Vata Watford Aktiv 118 / 129 40% 1 18.05.2027 -
Mohamed-Ali Cho Hull City Aktiv 132 / 130 40% 1 17.05.2027 -
Riley Owen Trento Aktiv 99 / 110 40% 4 16.05.2027 -
Johan Manzambi Newcastle United Aktiv 134 / 139 40% 2 16.05.2027 -
Emanuele Schimmenti Potenza Aktiv 105 / 111 40% 1 13.05.2027 -
Christos Mouzakitis Hull City Aktiv 129 / 136 40% 3 11.05.2027 -
Pietro Reggiori Pro Patria Aktiv 95 / 102 40% 1 11.05.2027 -
Sascha Britschgi Padova Aktiv 121 / 127 40% 2 09.05.2027 -
Andrea Bertoncini Carpi Aktiv 88 / 93 40% 1 09.05.2027 -
Victor Torp Coventry City Aktiv 130 / 123 40% 1 09.05.2027 -
Lee Bonis Chesterfield Aktiv 100 / 100 40% 1 08.05.2027 -
Robert Mizo Ashanti Gold Aktiv 101 / 106 40% 5 06.05.2027 -
Rhian Brewster Oxford United Aktiv 130 / 124 40% 2 06.05.2027 -
Gonzalo Fulham Aktiv 151 / 151 40% 3 05.05.2027 -
Andri Guðjohnsen Blackburn Rovers Aktiv 127 / 117 40% 1 04.05.2027 -
Brian Brobbey Sunderland Aktiv 138 / 143 40% 1 04.05.2027 -
Lorent Tolaj Plymouth Argyle Aktiv 111 / 124 40% 2 03.05.2027 -
Mandla Mahlangu Ajax Cape Town Aktiv 111 / 115 40% 2 03.05.2027 -
Nicolò Zaniolo Udinese Aktiv 147 / 139 40% 1 02.05.2027 -
Christian Saydee Wigan Athletic Aktiv 120 / 109 40% 2 01.05.2027 -
Zeki Amdouni Burnley Aktiv 126 / 131 40% 2 30.04.2027 -
Lewis McCann Fleetwood Town Aktiv 102 / 103 40% 1 30.04.2027 -
Samuele di Benedetto Bari Aktiv 104 / 119 40% 1 30.04.2027 -
Will Lankshear Middlesbrough Aktiv 126 / 123 40% 4 27.04.2027 -
Bojan Radulović Huddersfield Town Aktiv 119 / 112 40% 2 25.04.2027 -
Percy Jali Free State Stars Aktiv 101 / 97 40% 3 23.04.2027 -
Jan Bürger Gillingham Aktiv 99 / 113 40% 2 23.04.2027 -
Abu Kamara Portsmouth Aktiv 123 / 117 40% 2 23.04.2027 -
Mees Rijks Bristol Rovers Aktiv 109 / 112 40% 2 23.04.2027 -
Ronwen Phiri Platinum Stars Aktiv 94 / 106 40% 2 22.04.2027 -
Etiosa Ighodaro Kaizer Chiefs Aktiv 129 / 104 40% 3 21.04.2027 -
Mohammed Yahaya Great Olympics Aktiv 79 / 89 40% 2 18.04.2027 -
Wilson Isidor Sunderland Aktiv 140 / 134 40% 1 18.04.2027 -
Dávid Strelec Middlesbrough Aktiv 134 / 140 40% 2 17.04.2027 -
Kwame Opoku Asante Kotoko Aktiv 113 / 90 40% 2 16.04.2027 -
Mathias Jørgensen Blackburn Rovers Aktiv 130 / 124 40% 1 15.04.2027 -
Dean Erasmus Platinum Stars Aktiv 86 / 90 40% 1 13.04.2027 -
Noah Okafor Leeds United Aktiv 151 / 138 40% 1 13.04.2027 -
Dom Ballard Leyton Orient Aktiv 111 / 123 40% 3 11.04.2027 -
Kenan Dervišagić Floriana Aktiv 92 / 94 40% 1 11.04.2027 -
Zakaria Aboukhlal Torino Aktiv 126 / 140 40% 2 08.04.2027 -
Jørgen Strand Larsen Crystal Palace Aktiv 138 / 141 40% 1 07.04.2027 -
Tyreece Simpson Maritzburg United Aktiv 77 / 91 40% 1 04.04.2027 -
Kwadwo Obeng Junior Heart of Lions Aktiv 101 / 85 40% 1 31.03.2027 -
Nevot Ratner Maccabi Haifa Aktiv 112 / 111 40% 1 25.03.2027 -
Ilyas Ansah Hull City Aktiv 124 / 132 40% 1 21.03.2027 -
Iwan Morgan Grimsby Town Aktiv 108 / 111 40% 1 18.03.2027 -
Georginio Rutter Brighton Aktiv 149 / 155 40% 1 08.03.2027 -
Keagan Tau Ajax Cape Town Aktiv 100 / 95 40% 1 07.03.2027 -
Richard Koné Queens Park Rangers Aktiv 116 / 119 40% 1 03.03.2027 -
Konstantin Tyukavin Inter Aktiv 132 / 133 66% 1 01.01.2027 Befürworten
Kota Tawaratsumida River Plate Aktiv 133 / 136 66% 1 01.01.2027 Befürworten
Fotis Ioannidis Rio Ave Aktiv 136 / 136 67% 1 01.01.2027 Befürworten
Ousmane Diomande Nottingham Forest Aktiv 140 / 150 40% 2 31.12.2026 -
Adam Wharton Crystal Palace Aktiv 145 / 151 40% 1 31.12.2026 -
Bobby Thomas Coventry City Aktiv 143 / 127 40% 1 30.12.2026 -
Ethan Galbraith Swansea City Aktiv 139 / 135 40% 2 28.12.2026 -
Dara O'Shea Ipswich Town Aktiv 145 / 130 40% 2 27.12.2026 -
Dennis Cirkin Queens Park Rangers Aktiv 124 / 124 40% 1 27.12.2026 -
Adrien Truffert Bournemouth Aktiv 139 / 144 40% 2 26.12.2026 -
Florentino Luís Ipswich Town Aktiv 133 / 138 40% 1 26.12.2026 -
Mateus Mané Manchester United Aktiv 135 / 137 40% 1 26.12.2026 -
Christian Krasnodar Aktiv 139 / 136 40% 1 23.12.2026 -
Nicolás Fernández Mercau Shakhtar Aktiv 119 / 133 40% 1 22.12.2026 -
Nathan Collins Brentford Aktiv 134 / 141 40% 1 22.12.2026 -
Anel Ahmedhodžić Burnley Aktiv 141 / 135 40% 1 21.12.2026 -
Ryan Sessegnon Fulham Aktiv 154 / 148 40% 1 21.12.2026 -
Noah Sadiki Sunderland Aktiv 138 / 148 40% 3 20.12.2026 -
Yehor Yarmoliuk Brentford Aktiv 153 / 145 40% 1 19.12.2026 -
Harry Clarke Preston Aktiv 117 / 123 40% 1 17.12.2026 -
Japhet Tanganga Sheffield United Aktiv 121 / 133 40% 1 16.12.2026 -
Derry Murkin Derby County Aktiv 135 / 122 40% 1 16.12.2026 -
Jack Rudoni Coventry City Aktiv 131 / 131 40% 1 16.12.2026 -
Welington Southampton Aktiv 128 / 123 40% 1 16.12.2026 -
Amine Adli Bournemouth Aktiv 148 / 149 40% 1 15.12.2026 -
Kasey McAteer Ipswich Town Aktiv 138 / 131 40% 1 15.12.2026 -
Reda Khadra Qarabag Aktiv 139 / 120 40% 1 13.12.2026 -
Facundo Mura Inter Miami CF Aktiv 136 / 119 40% 1 13.12.2026 -
Aidan Morris Middlesbrough Aktiv 125 / 132 40% 1 13.12.2026 -
Conrad Wallem Austria Wien Aktiv 126 / 127 40% 1 12.12.2026 -
Marcelo Allende Mamelodi Sundowns Aktiv 122 / 134 40% 1 11.12.2026 -
Paxten Aaronson Colorado Rapids Aktiv 129 / 128 40% 1 11.12.2026 -
Isaac Kyereh Liberty Professionals Aktiv 119 / 109 40% 2 20.11.2026 -
Mbekezeli Mbokazi Chicago Fire Aktiv 123 / 129 40% 1 02.11.2026 -
Philippe Ndinga Philadelphia Union Aktiv 119 / 117 40% 1 02.11.2026 -
Kevin Vazquez Cruz Azul Aktiv 116 / 139 40% 1 05.10.2026 -
Josh King Chelsea Aktiv 139 / 139 40% 1 10.09.2026 -
Andy Rojas New York Red Bulls Aktiv 81 / 105 40% 1 08.09.2026 -
Amin Boudri Los Angeles Football Club Aktiv 112 / 129 40% 1 22.08.2026 -
El Hadji Malick Diouf Brentford Aktiv 136 / 145 40% 1 12.08.2026 -
Nahuel Herrera Penarol Aktiv 114 / 128 40% 1 09.08.2026 -
Mauricio Amaro Atlanta United FC Aktiv 116 / 128 40% 1 09.08.2026 -
Noah Cobb Colorado Rapids Aktiv 85 / 102 40% 1 02.08.2026 -
Morrison Agyemang Charlotte Football Club Aktiv 100 / 117 40% 1 01.08.2026 -